sensor_id;sensor_type;location;lat;lon;timestamp;P1;durP1;ratioP1;P2;durP2;ratioP2
1879;SDS011;49285;49.002;8.390;2023-04-06T00:00:45;11.57;;;8.07;;
1879;SDS011;49285;49.002;8.390;2023-04-06T00:03:12;9.77;;;8.00;;
1879;SDS011;49285;49.002;8.390;2023-04-06T00:05:38;9.47;;;7.77;;
1879;SDS011;49285;49.002;8.390;2023-04-06T00:08:03;9.83;;;7.90;;
1879;SDS011;49285;49.002;8.390;2023-04-06T00:10:29;9.97;;;8.10;;
1879;SDS011;49285;49.002;8.390;2023-04-06T00:12:55;11.57;;;8.23;;
1879;SDS011;49285;49.002;8.390;2023-04-06T00:15:22;10.10;;;8.33;;
1879;SDS011;49285;49.002;8.390;2023-04-06T00:17:48;9.57;;;8.37;;
1879;SDS011;49285;49.002;8.390;2023-04-06T00:20:14;10.47;;;7.57;;
1879;SDS011;49285;49.002;8.390;2023-04-06T00:22:40;13.90;;;7.83;;
1879;SDS011;49285;49.002;8.390;2023-04-06T00:25:06;9.33;;;8.33;;
1879;SDS011;49285;49.002;8.390;2023-04-06T00:27:32;11.73;;;8.27;;
1879;SDS011;49285;49.002;8.390;2023-04-06T00:29:57;9.37;;;7.90;;
1879;SDS011;49285;49.002;8.390;2023-04-06T00:32:23;9.90;;;7.97;;
1879;SDS011;49285;49.002;8.390;2023-04-06T00:34:49;10.80;;;7.93;;
1879;SDS011;49285;49.002;8.390;2023-04-06T00:37:17;8.77;;;6.60;;
1879;SDS011;49285;49.002;8.390;2023-04-06T00:39:44;9.40;;;7.30;;
1879;SDS011;49285;49.002;8.390;2023-04-06T00:42:12;14.37;;;7.20;;
1879;SDS011;49285;49.002;8.390;2023-04-06T00:44:39;10.30;;;7.67;;
1879;SDS011;49285;49.002;8.390;2023-04-06T00:47:06;9.70;;;7.97;;
1879;SDS011;49285;49.002;8.390;2023-04-06T00:49:32;9.23;;;8.03;;
1879;SDS011;49285;49.002;8.390;2023-04-06T00:51:58;10.47;;;7.83;;
1879;SDS011;49285;49.002;8.390;2023-04-06T00:54:24;9.20;;;7.20;;
1879;SDS011;49285;49.002;8.390;2023-04-06T00:56:50;9.67;;;8.03;;
1879;SDS011;49285;49.002;8.390;2023-04-06T00:59:16;11.03;;;8.67;;
1879;SDS011;49285;49.002;8.390;2023-04-06T01:01:42;8.93;;;8.03;;
1879;SDS011;49285;49.002;8.390;2023-04-06T01:04:07;11.00;;;7.90;;
1879;SDS011;49285;49.002;8.390;2023-04-06T01:06:33;8.57;;;7.17;;
1879;SDS011;49285;49.002;8.390;2023-04-06T01:08:59;10.03;;;7.07;;
1879;SDS011;49285;49.002;8.390;2023-04-06T01:11:25;8.90;;;6.80;;
1879;SDS011;49285;49.002;8.390;2023-04-06T01:13:51;8.80;;;7.73;;
1879;SDS011;49285;49.002;8.390;2023-04-06T01:16:17;10.43;;;7.40;;
1879;SDS011;49285;49.002;8.390;2023-04-06T01:18:43;9.53;;;7.03;;
1879;SDS011;49285;49.002;8.390;2023-04-06T01:21:09;8.90;;;7.80;;
1879;SDS011;49285;49.002;8.390;2023-04-06T01:23:40;10.63;;;7.90;;
1879;SDS011;49285;49.002;8.390;2023-04-06T01:26:12;11.27;;;7.60;;
1879;SDS011;49285;49.002;8.390;2023-04-06T01:28:38;10.10;;;7.67;;
1879;SDS011;49285;49.002;8.390;2023-04-06T01:31:06;9.20;;;8.30;;
1879;SDS011;49285;49.002;8.390;2023-04-06T01:33:32;9.23;;;7.20;;
1879;SDS011;49285;49.002;8.390;2023-04-06T01:35:58;10.30;;;7.80;;
1879;SDS011;49285;49.002;8.390;2023-04-06T01:38:24;11.13;;;7.57;;
1879;SDS011;49285;49.002;8.390;2023-04-06T01:40:51;12.43;;;7.93;;
1879;SDS011;49285;49.002;8.390;2023-04-06T01:43:17;8.90;;;7.03;;
1879;SDS011;49285;49.002;8.390;2023-04-06T01:45:42;8.17;;;6.73;;
1879;SDS011;49285;49.002;8.390;2023-04-06T01:48:08;16.67;;;7.43;;
1879;SDS011;49285;49.002;8.390;2023-04-06T01:50:33;12.37;;;8.50;;
1879;SDS011;49285;49.002;8.390;2023-04-06T01:52:59;10.60;;;7.30;;
1879;SDS011;49285;49.002;8.390;2023-04-06T01:55:25;8.10;;;7.30;;
1879;SDS011;49285;49.002;8.390;2023-04-06T01:57:51;9.00;;;6.97;;
1879;SDS011;49285;49.002;8.390;2023-04-06T02:00:16;7.80;;;6.53;;
1879;SDS011;49285;49.002;8.390;2023-04-06T02:02:42;7.50;;;6.50;;
1879;SDS011;49285;49.002;8.390;2023-04-06T02:05:08;11.27;;;6.40;;
1879;SDS011;49285;49.002;8.390;2023-04-06T02:07:33;9.53;;;7.40;;
1879;SDS011;49285;49.002;8.390;2023-04-06T02:09:59;13.53;;;6.53;;
1879;SDS011;49285;49.002;8.390;2023-04-06T02:12:25;7.93;;;6.43;;
1879;SDS011;49285;49.002;8.390;2023-04-06T02:14:50;10.27;;;7.47;;
1879;SDS011;49285;49.002;8.390;2023-04-06T02:17:16;11.60;;;8.03;;
1879;SDS011;49285;49.002;8.390;2023-04-06T02:19:42;8.17;;;6.77;;
1879;SDS011;49285;49.002;8.390;2023-04-06T02:22:07;8.43;;;7.23;;
1879;SDS011;49285;49.002;8.390;2023-04-06T02:24:34;7.93;;;7.07;;
1879;SDS011;49285;49.002;8.390;2023-04-06T02:27:00;10.70;;;7.30;;
1879;SDS011;49285;49.002;8.390;2023-04-06T02:29:26;7.00;;;6.30;;
1879;SDS011;49285;49.002;8.390;2023-04-06T02:31:51;8.17;;;7.37;;
1879;SDS011;49285;49.002;8.390;2023-04-06T02:34:17;8.80;;;7.10;;
1879;SDS011;49285;49.002;8.390;2023-04-06T02:36:44;10.20;;;7.40;;
1879;SDS011;49285;49.002;8.390;2023-04-06T02:39:10;10.00;;;7.93;;
1879;SDS011;49285;49.002;8.390;2023-04-06T02:41:36;8.33;;;6.80;;
1879;SDS011;49285;49.002;8.390;2023-04-06T02:44:02;8.70;;;7.40;;
1879;SDS011;49285;49.002;8.390;2023-04-06T02:46:28;8.63;;;7.03;;
1879;SDS011;49285;49.002;8.390;2023-04-06T02:48:54;9.63;;;7.10;;
1879;SDS011;49285;49.002;8.390;2023-04-06T02:51:20;7.73;;;7.03;;
1879;SDS011;49285;49.002;8.390;2023-04-06T02:53:45;8.57;;;7.17;;
1879;SDS011;49285;49.002;8.390;2023-04-06T02:56:11;7.90;;;6.50;;
1879;SDS011;49285;49.002;8.390;2023-04-06T02:58:37;11.73;;;7.00;;
1879;SDS011;49285;49.002;8.390;2023-04-06T03:01:03;7.57;;;6.17;;
1879;SDS011;49285;49.002;8.390;2023-04-06T03:03:28;8.07;;;6.77;;
1879;SDS011;49285;49.002;8.390;2023-04-06T03:05:55;7.73;;;6.67;;
1879;SDS011;49285;49.002;8.390;2023-04-06T03:08:23;10.60;;;7.90;;
1879;SDS011;49285;49.002;8.390;2023-04-06T03:10:49;8.00;;;6.70;;
1879;SDS011;49285;49.002;8.390;2023-04-06T03:13:15;10.50;;;7.73;;
1879;SDS011;49285;49.002;8.390;2023-04-06T03:15:41;11.17;;;6.73;;
1879;SDS011;49285;49.002;8.390;2023-04-06T03:18:06;7.77;;;6.17;;
1879;SDS011;49285;49.002;8.390;2023-04-06T03:20:32;9.80;;;6.77;;
1879;SDS011;49285;49.002;8.390;2023-04-06T03:22:58;15.53;;;7.03;;
1879;SDS011;49285;49.002;8.390;2023-04-06T03:25:23;8.00;;;6.90;;
1879;SDS011;49285;49.002;8.390;2023-04-06T03:27:49;9.77;;;6.67;;
1879;SDS011;49285;49.002;8.390;2023-04-06T03:30:15;9.93;;;6.87;;
1879;SDS011;49285;49.002;8.390;2023-04-06T03:32:43;11.50;;;6.40;;
1879;SDS011;49285;49.002;8.390;2023-04-06T03:35:09;6.50;;;5.90;;
1879;SDS011;49285;49.002;8.390;2023-04-06T03:37:35;8.80;;;6.60;;
1879;SDS011;49285;49.002;8.390;2023-04-06T03:40:01;9.50;;;6.67;;
1879;SDS011;49285;49.002;8.390;2023-04-06T03:42:27;10.57;;;6.27;;
1879;SDS011;49285;49.002;8.390;2023-04-06T03:44:53;7.10;;;6.20;;
1879;SDS011;49285;49.002;8.390;2023-04-06T03:47:19;7.23;;;6.07;;
1879;SDS011;49285;49.002;8.390;2023-04-06T03:49:45;8.23;;;6.87;;
1879;SDS011;49285;49.002;8.390;2023-04-06T03:52:10;7.27;;;6.57;;
1879;SDS011;49285;49.002;8.390;2023-04-06T03:54:36;7.40;;;6.47;;
1879;SDS011;49285;49.002;8.390;2023-04-06T03:57:02;8.60;;;6.50;;
1879;SDS011;49285;49.002;8.390;2023-04-06T03:59:27;7.27;;;5.80;;
1879;SDS011;49285;49.002;8.390;2023-04-06T04:01:53;7.60;;;6.23;;
1879;SDS011;49285;49.002;8.390;2023-04-06T04:04:19;11.07;;;7.80;;
1879;SDS011;49285;49.002;8.390;2023-04-06T04:06:44;9.10;;;6.90;;
1879;SDS011;49285;49.002;8.390;2023-04-06T04:09:10;7.90;;;7.10;;
1879;SDS011;49285;49.002;8.390;2023-04-06T04:11:35;7.20;;;6.50;;
1879;SDS011;49285;49.002;8.390;2023-04-06T04:14:01;7.60;;;6.13;;
1879;SDS011;49285;49.002;8.390;2023-04-06T04:16:27;7.30;;;6.57;;
1879;SDS011;49285;49.002;8.390;2023-04-06T04:18:52;9.40;;;6.70;;
1879;SDS011;49285;49.002;8.390;2023-04-06T04:21:18;9.90;;;6.43;;
1879;SDS011;49285;49.002;8.390;2023-04-06T04:23:44;9.53;;;7.07;;
1879;SDS011;49285;49.002;8.390;2023-04-06T04:26:09;7.17;;;6.47;;
1879;SDS011;49285;49.002;8.390;2023-04-06T04:28:35;9.90;;;7.07;;
1879;SDS011;49285;49.002;8.390;2023-04-06T04:31:01;8.80;;;7.17;;
1879;SDS011;49285;49.002;8.390;2023-04-06T04:33:26;7.67;;;6.50;;
1879;SDS011;49285;49.002;8.390;2023-04-06T04:35:52;9.37;;;7.23;;
1879;SDS011;49285;49.002;8.390;2023-04-06T04:38:18;7.10;;;6.40;;
1879;SDS011;49285;49.002;8.390;2023-04-06T04:40:43;8.10;;;6.37;;
1879;SDS011;49285;49.002;8.390;2023-04-06T04:43:09;8.13;;;6.37;;
1879;SDS011;49285;49.002;8.390;2023-04-06T04:45:35;7.50;;;6.70;;
1879;SDS011;49285;49.002;8.390;2023-04-06T04:48:00;7.97;;;6.63;;
1879;SDS011;49285;49.002;8.390;2023-04-06T04:50:26;7.03;;;6.33;;
1879;SDS011;49285;49.002;8.390;2023-04-06T04:52:51;8.90;;;7.20;;
1879;SDS011;49285;49.002;8.390;2023-04-06T04:55:17;8.27;;;6.90;;
1879;SDS011;49285;49.002;8.390;2023-04-06T04:57:43;8.43;;;6.10;;
1879;SDS011;49285;49.002;8.390;2023-04-06T05:00:09;7.53;;;6.20;;
1879;SDS011;49285;49.002;8.390;2023-04-06T05:02:35;8.60;;;7.00;;
1879;SDS011;49285;49.002;8.390;2023-04-06T05:05:00;8.03;;;6.20;;
1879;SDS011;49285;49.002;8.390;2023-04-06T05:07:26;7.27;;;6.30;;
1879;SDS011;49285;49.002;8.390;2023-04-06T05:09:52;8.70;;;6.90;;
1879;SDS011;49285;49.002;8.390;2023-04-06T05:12:18;10.00;;;6.50;;
1879;SDS011;49285;49.002;8.390;2023-04-06T05:14:44;8.10;;;6.10;;
1879;SDS011;49285;49.002;8.390;2023-04-06T05:17:10;7.63;;;6.40;;
1879;SDS011;49285;49.002;8.390;2023-04-06T05:19:36;8.07;;;6.43;;
1879;SDS011;49285;49.002;8.390;2023-04-06T05:22:01;6.87;;;6.17;;
1879;SDS011;49285;49.002;8.390;2023-04-06T05:24:27;11.20;;;7.47;;
1879;SDS011;49285;49.002;8.390;2023-04-06T05:26:53;7.53;;;6.83;;
1879;SDS011;49285;49.002;8.390;2023-04-06T05:29:19;10.50;;;7.90;;
1879;SDS011;49285;49.002;8.390;2023-04-06T05:31:45;9.43;;;7.73;;
1879;SDS011;49285;49.002;8.390;2023-04-06T05:34:11;10.10;;;7.87;;
1879;SDS011;49285;49.002;8.390;2023-04-06T05:36:37;12.53;;;7.30;;
1879;SDS011;49285;49.002;8.390;2023-04-06T05:39:03;7.13;;;6.47;;
1879;SDS011;49285;49.002;8.390;2023-04-06T05:41:29;9.37;;;7.40;;
1879;SDS011;49285;49.002;8.390;2023-04-06T05:43:55;8.50;;;7.60;;
1879;SDS011;49285;49.002;8.390;2023-04-06T05:46:20;8.10;;;7.30;;
1879;SDS011;49285;49.002;8.390;2023-04-06T05:48:46;10.27;;;7.93;;
1879;SDS011;49285;49.002;8.390;2023-04-06T05:51:12;9.13;;;8.13;;
1879;SDS011;49285;49.002;8.390;2023-04-06T05:53:37;9.53;;;8.53;;
1879;SDS011;49285;49.002;8.390;2023-04-06T05:56:03;11.03;;;8.00;;
1879;SDS011;49285;49.002;8.390;2023-04-06T05:58:29;8.43;;;7.63;;
1879;SDS011;49285;49.002;8.390;2023-04-06T06:00:58;11.43;;;7.40;;
1879;SDS011;49285;49.002;8.390;2023-04-06T06:03:25;8.17;;;7.30;;
1879;SDS011;49285;49.002;8.390;2023-04-06T06:05:51;11.60;;;7.80;;
1879;SDS011;49285;49.002;8.390;2023-04-06T06:08:16;11.00;;;7.07;;
1879;SDS011;49285;49.002;8.390;2023-04-06T06:10:42;7.90;;;7.10;;
1879;SDS011;49285;49.002;8.390;2023-04-06T06:13:08;9.50;;;7.07;;
1879;SDS011;49285;49.002;8.390;2023-04-06T06:15:34;8.97;;;6.40;;
1879;SDS011;49285;49.002;8.390;2023-04-06T06:18:00;7.67;;;6.87;;
1879;SDS011;49285;49.002;8.390;2023-04-06T06:20:26;10.57;;;6.90;;
1879;SDS011;49285;49.002;8.390;2023-04-06T06:22:52;11.50;;;7.60;;
1879;SDS011;49285;49.002;8.390;2023-04-06T06:25:18;10.10;;;7.23;;
1879;SDS011;49285;49.002;8.390;2023-04-06T06:27:43;7.63;;;6.80;;
1879;SDS011;49285;49.002;8.390;2023-04-06T06:30:09;7.47;;;6.70;;
1879;SDS011;49285;49.002;8.390;2023-04-06T06:32:35;8.87;;;7.70;;
1879;SDS011;49285;49.002;8.390;2023-04-06T06:35:01;11.27;;;9.17;;
1879;SDS011;49285;49.002;8.390;2023-04-06T06:37:27;8.87;;;7.97;;
1879;SDS011;49285;49.002;8.390;2023-04-06T06:39:53;9.50;;;7.87;;
1879;SDS011;49285;49.002;8.390;2023-04-06T06:42:18;9.63;;;7.30;;
1879;SDS011;49285;49.002;8.390;2023-04-06T06:44:44;13.40;;;8.13;;
1879;SDS011;49285;49.002;8.390;2023-04-06T06:47:10;8.80;;;7.70;;
1879;SDS011;49285;49.002;8.390;2023-04-06T06:49:36;9.00;;;8.10;;
1879;SDS011;49285;49.002;8.390;2023-04-06T06:52:01;11.57;;;7.57;;
1879;SDS011;49285;49.002;8.390;2023-04-06T06:54:27;8.20;;;7.10;;
1879;SDS011;49285;49.002;8.390;2023-04-06T06:56:53;9.57;;;8.03;;
1879;SDS011;49285;49.002;8.390;2023-04-06T06:59:19;8.40;;;7.60;;
1879;SDS011;49285;49.002;8.390;2023-04-06T07:01:45;11.40;;;8.20;;
1879;SDS011;49285;49.002;8.390;2023-04-06T07:04:11;8.63;;;7.57;;
1879;SDS011;49285;49.002;8.390;2023-04-06T07:06:36;8.50;;;7.13;;
1879;SDS011;49285;49.002;8.390;2023-04-06T07:09:02;8.40;;;7.60;;
1879;SDS011;49285;49.002;8.390;2023-04-06T07:11:28;10.87;;;8.90;;
1879;SDS011;49285;49.002;8.390;2023-04-06T07:13:54;8.67;;;7.87;;
1879;SDS011;49285;49.002;8.390;2023-04-06T07:16:20;10.17;;;7.67;;
1879;SDS011;49285;49.002;8.390;2023-04-06T07:18:45;9.27;;;8.37;;
1879;SDS011;49285;49.002;8.390;2023-04-06T07:21:11;13.90;;;7.67;;
1879;SDS011;49285;49.002;8.390;2023-04-06T07:23:37;11.80;;;8.53;;
1879;SDS011;49285;49.002;8.390;2023-04-06T07:26:02;9.03;;;7.67;;
1879;SDS011;49285;49.002;8.390;2023-04-06T07:28:28;10.30;;;8.07;;
1879;SDS011;49285;49.002;8.390;2023-04-06T07:30:54;11.37;;;8.50;;
1879;SDS011;49285;49.002;8.390;2023-04-06T07:33:19;8.27;;;7.13;;
1879;SDS011;49285;49.002;8.390;2023-04-06T07:35:45;10.80;;;7.97;;
1879;SDS011;49285;49.002;8.390;2023-04-06T07:38:11;8.27;;;7.47;;
1879;SDS011;49285;49.002;8.390;2023-04-06T07:40:37;8.53;;;7.63;;
1879;SDS011;49285;49.002;8.390;2023-04-06T07:43:02;9.37;;;8.40;;
1879;SDS011;49285;49.002;8.390;2023-04-06T07:45:28;11.60;;;8.13;;
1879;SDS011;49285;49.002;8.390;2023-04-06T07:47:54;8.40;;;6.80;;
1879;SDS011;49285;49.002;8.390;2023-04-06T07:50:20;8.03;;;7.23;;
1879;SDS011;49285;49.002;8.390;2023-04-06T07:52:46;7.47;;;6.50;;
1879;SDS011;49285;49.002;8.390;2023-04-06T07:55:12;12.57;;;8.13;;
1879;SDS011;49285;49.002;8.390;2023-04-06T07:57:37;9.20;;;7.63;;
1879;SDS011;49285;49.002;8.390;2023-04-06T08:00:03;9.17;;;7.73;;
1879;SDS011;49285;49.002;8.390;2023-04-06T08:02:31;9.10;;;8.20;;
1879;SDS011;49285;49.002;8.390;2023-04-06T08:04:56;8.80;;;7.90;;
1879;SDS011;49285;49.002;8.390;2023-04-06T08:07:22;9.80;;;7.20;;
1879;SDS011;49285;49.002;8.390;2023-04-06T08:09:48;11.37;;;7.93;;
1879;SDS011;49285;49.002;8.390;2023-04-06T08:12:13;13.83;;;9.13;;
1879;SDS011;49285;49.002;8.390;2023-04-06T08:14:39;8.47;;;7.57;;
1879;SDS011;49285;49.002;8.390;2023-04-06T08:17:05;10.00;;;8.40;;
1879;SDS011;49285;49.002;8.390;2023-04-06T08:19:31;10.70;;;9.07;;
1879;SDS011;49285;49.002;8.390;2023-04-06T08:21:56;10.17;;;8.97;;
1879;SDS011;49285;49.002;8.390;2023-04-06T08:24:22;13.73;;;8.87;;
1879;SDS011;49285;49.002;8.390;2023-04-06T08:26:47;10.37;;;8.33;;
1879;SDS011;49285;49.002;8.390;2023-04-06T08:29:13;9.40;;;8.30;;
1879;SDS011;49285;49.002;8.390;2023-04-06T08:31:39;8.87;;;7.97;;
1879;SDS011;49285;49.002;8.390;2023-04-06T08:34:05;13.43;;;8.70;;
1879;SDS011;49285;49.002;8.390;2023-04-06T08:36:31;10.40;;;8.80;;
1879;SDS011;49285;49.002;8.390;2023-04-06T08:38:58;9.20;;;8.20;;
1879;SDS011;49285;49.002;8.390;2023-04-06T08:41:24;13.13;;;9.30;;
1879;SDS011;49285;49.002;8.390;2023-04-06T08:46:24;10.30;;;8.60;;
1879;SDS011;49285;49.002;8.390;2023-04-06T08:48:54;8.90;;;8.00;;
1879;SDS011;49285;49.002;8.390;2023-04-06T08:51:23;9.60;;;8.07;;
1879;SDS011;49285;49.002;8.390;2023-04-06T08:53:53;9.23;;;8.00;;
1879;SDS011;49285;49.002;8.390;2023-04-06T08:56:22;8.77;;;7.83;;
1879;SDS011;49285;49.002;8.390;2023-04-06T08:58:52;8.90;;;7.60;;
1879;SDS011;49285;49.002;8.390;2023-04-06T09:01:21;9.43;;;8.50;;
1879;SDS011;49285;49.002;8.390;2023-04-06T09:03:50;9.63;;;8.40;;
1879;SDS011;49285;49.002;8.390;2023-04-06T09:06:18;9.30;;;7.57;;
1879;SDS011;49285;49.002;8.390;2023-04-06T09:08:43;11.43;;;9.20;;
1879;SDS011;49285;49.002;8.390;2023-04-06T09:11:10;9.03;;;8.10;;
1879;SDS011;49285;49.002;8.390;2023-04-06T09:13:46;9.20;;;8.00;;
1879;SDS011;49285;49.002;8.390;2023-04-06T09:16:15;10.47;;;7.97;;
1879;SDS011;49285;49.002;8.390;2023-04-06T09:18:41;8.50;;;7.63;;
1879;SDS011;49285;49.002;8.390;2023-04-06T09:21:08;8.70;;;7.80;;
1879;SDS011;49285;49.002;8.390;2023-04-06T09:23:34;11.63;;;10.40;;
1879;SDS011;49285;49.002;8.390;2023-04-06T09:28:45;9.77;;;8.87;;
1879;SDS011;49285;49.002;8.390;2023-04-06T09:31:13;9.47;;;8.20;;
1879;SDS011;49285;49.002;8.390;2023-04-06T09:33:41;11.37;;;8.80;;
1879;SDS011;49285;49.002;8.390;2023-04-06T09:36:09;10.30;;;9.03;;
1879;SDS011;49285;49.002;8.390;2023-04-06T09:38:38;11.00;;;9.27;;
1879;SDS011;49285;49.002;8.390;2023-04-06T09:41:20;9.47;;;7.83;;
1879;SDS011;49285;49.002;8.390;2023-04-06T09:44:08;10.00;;;8.47;;
1879;SDS011;49285;49.002;8.390;2023-04-06T09:46:36;11.23;;;9.80;;
1879;SDS011;49285;49.002;8.390;2023-04-06T09:49:04;11.93;;;8.60;;
1879;SDS011;49285;49.002;8.390;2023-04-06T09:51:40;11.73;;;9.67;;
1879;SDS011;49285;49.002;8.390;2023-04-06T09:54:10;11.37;;;9.50;;
1879;SDS011;49285;49.002;8.390;2023-04-06T09:59:09;10.90;;;9.77;;
1879;SDS011;49285;49.002;8.390;2023-04-06T10:01:58;10.53;;;9.17;;
1879;SDS011;49285;49.002;8.390;2023-04-06T10:06:59;10.23;;;9.03;;
1879;SDS011;49285;49.002;8.390;2023-04-06T10:09:28;13.10;;;8.60;;
1879;SDS011;49285;49.002;8.390;2023-04-06T10:12:02;12.13;;;9.37;;
1879;SDS011;49285;49.002;8.390;2023-04-06T10:14:28;11.90;;;8.83;;
1879;SDS011;49285;49.002;8.390;2023-04-06T10:16:55;10.47;;;7.80;;
1879;SDS011;49285;49.002;8.390;2023-04-06T10:19:23;11.07;;;8.97;;
1879;SDS011;49285;49.002;8.390;2023-04-06T10:21:53;9.30;;;8.27;;
1879;SDS011;49285;49.002;8.390;2023-04-06T10:24:23;10.30;;;8.53;;
1879;SDS011;49285;49.002;8.390;2023-04-06T10:26:58;10.57;;;9.57;;
1879;SDS011;49285;49.002;8.390;2023-04-06T10:29:26;12.63;;;9.10;;
1879;SDS011;49285;49.002;8.390;2023-04-06T10:31:52;12.47;;;9.90;;
1879;SDS011;49285;49.002;8.390;2023-04-06T10:34:20;10.27;;;8.73;;
1879;SDS011;49285;49.002;8.390;2023-04-06T10:36:45;10.67;;;8.67;;
1879;SDS011;49285;49.002;8.390;2023-04-06T10:39:11;13.00;;;9.43;;
1879;SDS011;49285;49.002;8.390;2023-04-06T10:41:46;9.63;;;8.63;;
1879;SDS011;49285;49.002;8.390;2023-04-06T10:44:20;9.97;;;8.97;;
1879;SDS011;49285;49.002;8.390;2023-04-06T10:46:53;10.10;;;9.00;;
1879;SDS011;49285;49.002;8.390;2023-04-06T10:49:20;12.87;;;9.20;;
1879;SDS011;49285;49.002;8.390;2023-04-06T10:51:50;12.23;;;9.00;;
1879;SDS011;49285;49.002;8.390;2023-04-06T10:54:18;9.83;;;8.63;;
1879;SDS011;49285;49.002;8.390;2023-04-06T10:56:45;10.17;;;8.70;;
1879;SDS011;49285;49.002;8.390;2023-04-06T10:59:11;8.37;;;7.53;;
1879;SDS011;49285;49.002;8.390;2023-04-06T11:01:36;9.57;;;7.57;;
1879;SDS011;49285;49.002;8.390;2023-04-06T11:04:02;12.00;;;8.50;;
1879;SDS011;49285;49.002;8.390;2023-04-06T11:06:29;9.10;;;7.97;;
1879;SDS011;49285;49.002;8.390;2023-04-06T11:08:56;9.90;;;7.20;;
1879;SDS011;49285;49.002;8.390;2023-04-06T11:11:24;8.50;;;7.70;;
1879;SDS011;49285;49.002;8.390;2023-04-06T11:16:17;11.23;;;7.93;;
1879;SDS011;49285;49.002;8.390;2023-04-06T11:18:48;9.80;;;8.30;;
1879;SDS011;49285;49.002;8.390;2023-04-06T11:24:10;9.27;;;8.20;;
1879;SDS011;49285;49.002;8.390;2023-04-06T11:29:15;13.33;;;8.67;;
1879;SDS011;49285;49.002;8.390;2023-04-06T11:31:46;9.30;;;8.40;;
1879;SDS011;49285;49.002;8.390;2023-04-06T11:34:13;9.77;;;8.60;;
1879;SDS011;49285;49.002;8.390;2023-04-06T11:36:42;10.03;;;9.03;;
1879;SDS011;49285;49.002;8.390;2023-04-06T11:39:09;9.23;;;8.30;;
1879;SDS011;49285;49.002;8.390;2023-04-06T11:41:35;11.93;;;9.20;;
1879;SDS011;49285;49.002;8.390;2023-04-06T11:44:01;9.87;;;8.03;;
1879;SDS011;49285;49.002;8.390;2023-04-06T11:46:28;10.07;;;8.27;;
1879;SDS011;49285;49.002;8.390;2023-04-06T11:48:57;10.73;;;8.27;;
1879;SDS011;49285;49.002;8.390;2023-04-06T11:51:24;9.40;;;8.40;;
1879;SDS011;49285;49.002;8.390;2023-04-06T11:53:51;10.10;;;8.70;;
1879;SDS011;49285;49.002;8.390;2023-04-06T11:56:50;9.40;;;8.40;;
1879;SDS011;49285;49.002;8.390;2023-04-06T11:59:11;10.23;;;7.93;;
1879;SDS011;49285;49.002;8.390;2023-04-06T12:01:44;9.83;;;7.13;;
1879;SDS011;49285;49.002;8.390;2023-04-06T12:04:10;10.40;;;7.60;;
1879;SDS011;49285;49.002;8.390;2023-04-06T12:06:36;9.27;;;8.37;;
1879;SDS011;49285;49.002;8.390;2023-04-06T12:09:01;8.70;;;7.60;;
1879;SDS011;49285;49.002;8.390;2023-04-06T12:11:27;7.57;;;6.80;;
1879;SDS011;49285;49.002;8.390;2023-04-06T12:13:53;9.40;;;8.40;;
1879;SDS011;49285;49.002;8.390;2023-04-06T12:16:18;9.67;;;8.67;;
1879;SDS011;49285;49.002;8.390;2023-04-06T12:18:44;8.43;;;7.63;;
1879;SDS011;49285;49.002;8.390;2023-04-06T12:21:10;13.23;;;8.87;;
1879;SDS011;49285;49.002;8.390;2023-04-06T12:23:35;9.27;;;8.23;;
1879;SDS011;49285;49.002;8.390;2023-04-06T12:26:01;10.13;;;8.53;;
1879;SDS011;49285;49.002;8.390;2023-04-06T12:28:28;9.47;;;8.57;;
1879;SDS011;49285;49.002;8.390;2023-04-06T12:30:54;10.03;;;9.00;;
1879;SDS011;49285;49.002;8.390;2023-04-06T12:33:20;10.23;;;8.30;;
1879;SDS011;49285;49.002;8.390;2023-04-06T12:35:46;8.07;;;7.27;;
1879;SDS011;49285;49.002;8.390;2023-04-06T12:38:11;11.90;;;8.60;;
1879;SDS011;49285;49.002;8.390;2023-04-06T12:40:37;9.73;;;8.83;;
1879;SDS011;49285;49.002;8.390;2023-04-06T12:43:04;10.17;;;8.30;;
1879;SDS011;49285;49.002;8.390;2023-04-06T12:45:32;9.77;;;8.67;;
1879;SDS011;49285;49.002;8.390;2023-04-06T12:47:58;8.47;;;7.50;;
1879;SDS011;49285;49.002;8.390;2023-04-06T12:50:24;8.43;;;7.53;;
1879;SDS011;49285;49.002;8.390;2023-04-06T12:52:51;8.27;;;7.50;;
1879;SDS011;49285;49.002;8.390;2023-04-06T12:55:17;8.23;;;7.40;;
1879;SDS011;49285;49.002;8.390;2023-04-06T12:57:42;8.53;;;7.57;;
1879;SDS011;49285;49.002;8.390;2023-04-06T13:00:10;8.63;;;7.73;;
1879;SDS011;49285;49.002;8.390;2023-04-06T13:02:36;8.50;;;7.63;;
1879;SDS011;49285;49.002;8.390;2023-04-06T13:05:02;10.17;;;7.53;;
1879;SDS011;49285;49.002;8.390;2023-04-06T13:07:27;9.13;;;7.27;;
1879;SDS011;49285;49.002;8.390;2023-04-06T13:09:53;9.10;;;7.80;;
1879;SDS011;49285;49.002;8.390;2023-04-06T13:12:19;9.13;;;8.17;;
1879;SDS011;49285;49.002;8.390;2023-04-06T13:14:44;10.97;;;8.07;;
1879;SDS011;49285;49.002;8.390;2023-04-06T13:17:15;8.40;;;7.60;;
1879;SDS011;49285;49.002;8.390;2023-04-06T13:19:42;7.67;;;6.87;;
1879;SDS011;49285;49.002;8.390;2023-04-06T13:22:08;8.40;;;7.40;;
1879;SDS011;49285;49.002;8.390;2023-04-06T13:24:33;8.40;;;7.60;;
1879;SDS011;49285;49.002;8.390;2023-04-06T13:26:59;9.63;;;7.90;;
1879;SDS011;49285;49.002;8.390;2023-04-06T13:29:25;10.10;;;7.60;;
1879;SDS011;49285;49.002;8.390;2023-04-06T13:31:52;7.80;;;7.10;;
1879;SDS011;49285;49.002;8.390;2023-04-06T13:34:17;10.20;;;7.10;;
1879;SDS011;49285;49.002;8.390;2023-04-06T13:36:43;7.83;;;7.03;;
1879;SDS011;49285;49.002;8.390;2023-04-06T13:39:08;7.50;;;6.83;;
1879;SDS011;49285;49.002;8.390;2023-04-06T13:41:34;7.60;;;6.90;;
1879;SDS011;49285;49.002;8.390;2023-04-06T13:44:00;7.73;;;6.97;;
1879;SDS011;49285;49.002;8.390;2023-04-06T13:46:25;9.23;;;7.80;;
1879;SDS011;49285;49.002;8.390;2023-04-06T13:48:52;8.10;;;7.07;;
1879;SDS011;49285;49.002;8.390;2023-04-06T13:51:18;8.27;;;6.70;;
1879;SDS011;49285;49.002;8.390;2023-04-06T13:53:44;8.87;;;7.37;;
1879;SDS011;49285;49.002;8.390;2023-04-06T13:56:10;8.53;;;6.87;;
1879;SDS011;49285;49.002;8.390;2023-04-06T13:58:35;7.50;;;6.70;;
1879;SDS011;49285;49.002;8.390;2023-04-06T14:01:02;7.60;;;6.80;;
1879;SDS011;49285;49.002;8.390;2023-04-06T14:03:32;7.57;;;6.50;;
1879;SDS011;49285;49.002;8.390;2023-04-06T14:05:58;8.20;;;7.30;;
1879;SDS011;49285;49.002;8.390;2023-04-06T14:08:24;7.47;;;6.67;;
1879;SDS011;49285;49.002;8.390;2023-04-06T14:10:50;8.77;;;7.20;;
1879;SDS011;49285;49.002;8.390;2023-04-06T14:13:16;7.50;;;6.80;;
1879;SDS011;49285;49.002;8.390;2023-04-06T14:15:42;7.80;;;6.83;;
1879;SDS011;49285;49.002;8.390;2023-04-06T14:18:08;8.40;;;7.50;;
1879;SDS011;49285;49.002;8.390;2023-04-06T14:20:33;7.80;;;7.00;;
1879;SDS011;49285;49.002;8.390;2023-04-06T14:23:02;9.70;;;7.37;;
1879;SDS011;49285;49.002;8.390;2023-04-06T14:25:28;8.47;;;7.53;;
1879;SDS011;49285;49.002;8.390;2023-04-06T14:27:56;8.47;;;6.93;;
1879;SDS011;49285;49.002;8.390;2023-04-06T14:30:22;11.43;;;8.47;;
1879;SDS011;49285;49.002;8.390;2023-04-06T14:32:48;11.50;;;8.53;;
1879;SDS011;49285;49.002;8.390;2023-04-06T14:35:13;9.97;;;8.37;;
1879;SDS011;49285;49.002;8.390;2023-04-06T14:37:39;11.17;;;8.00;;
1879;SDS011;49285;49.002;8.390;2023-04-06T14:40:05;9.80;;;8.80;;
1879;SDS011;49285;49.002;8.390;2023-04-06T14:42:31;10.73;;;8.40;;
1879;SDS011;49285;49.002;8.390;2023-04-06T14:44:57;10.10;;;8.60;;
1879;SDS011;49285;49.002;8.390;2023-04-06T14:47:22;9.40;;;8.17;;
1879;SDS011;49285;49.002;8.390;2023-04-06T14:49:50;12.07;;;8.23;;
1879;SDS011;49285;49.002;8.390;2023-04-06T14:52:17;11.17;;;8.77;;
1879;SDS011;49285;49.002;8.390;2023-04-06T14:54:42;9.83;;;8.47;;
1879;SDS011;49285;49.002;8.390;2023-04-06T14:57:08;9.87;;;8.37;;
1879;SDS011;49285;49.002;8.390;2023-04-06T14:59:33;9.57;;;8.53;;
1879;SDS011;49285;49.002;8.390;2023-04-06T15:02:00;9.70;;;8.33;;
1879;SDS011;49285;49.002;8.390;2023-04-06T15:04:26;10.37;;;7.83;;
1879;SDS011;49285;49.002;8.390;2023-04-06T15:06:52;11.53;;;8.93;;
1879;SDS011;49285;49.002;8.390;2023-04-06T15:09:17;10.93;;;8.67;;